sensor_id;sensor_type;location;lat;lon;timestamp;temperature;humidity
27647;DHT22;42229;51.230;6.240;2023-04-06T00:01:56;3.40;81.70
27647;DHT22;42229;51.230;6.240;2023-04-06T00:04:22;3.30;81.80
27647;DHT22;42229;51.230;6.240;2023-04-06T00:06:49;3.30;82.00
27647;DHT22;42229;51.230;6.240;2023-04-06T00:09:15;3.30;82.20
27647;DHT22;42229;51.230;6.240;2023-04-06T00:11:41;3.30;82.50
27647;DHT22;42229;51.230;6.240;2023-04-06T00:14:07;3.20;83.20
27647;DHT22;42229;51.230;6.240;2023-04-06T00:16:34;3.20;82.90
27647;DHT22;42229;51.230;6.240;2023-04-06T00:19:00;3.20;83.20
27647;DHT22;42229;51.230;6.240;2023-04-06T00:21:26;3.20;83.60
27647;DHT22;42229;51.230;6.240;2023-04-06T00:23:52;3.20;83.80
27647;DHT22;42229;51.230;6.240;2023-04-06T00:26:19;3.20;84.10
27647;DHT22;42229;51.230;6.240;2023-04-06T00:28:47;3.20;84.30
27647;DHT22;42229;51.230;6.240;2023-04-06T00:31:13;3.20;84.50
27647;DHT22;42229;51.230;6.240;2023-04-06T00:33:39;3.20;84.70
27647;DHT22;42229;51.230;6.240;2023-04-06T00:36:06;3.20;84.90
27647;DHT22;42229;51.230;6.240;2023-04-06T00:38:32;3.20;85.00
27647;DHT22;42229;51.230;6.240;2023-04-06T00:40:58;3.20;85.10
27647;DHT22;42229;51.230;6.240;2023-04-06T00:43:24;3.10;85.30
27647;DHT22;42229;51.230;6.240;2023-04-06T00:45:51;3.00;85.40
27647;DHT22;42229;51.230;6.240;2023-04-06T00:48:17;3.00;85.60
27647;DHT22;42229;51.230;6.240;2023-04-06T00:50:44;3.00;85.80
27647;DHT22;42229;51.230;6.240;2023-04-06T00:53:10;2.90;86.00
27647;DHT22;42229;51.230;6.240;2023-04-06T00:55:36;2.90;86.10
27647;DHT22;42229;51.230;6.240;2023-04-06T00:58:03;2.90;86.30
27647;DHT22;42229;51.230;6.240;2023-04-06T01:00:39;2.90;86.60
27647;DHT22;42229;51.230;6.240;2023-04-06T01:03:07;2.80;86.70
27647;DHT22;42229;51.230;6.240;2023-04-06T01:05:39;2.80;86.90
27647;DHT22;42229;51.230;6.240;2023-04-06T01:08:11;2.80;87.80
27647;DHT22;42229;51.230;6.240;2023-04-06T01:10:37;2.80;87.40
27647;DHT22;42229;51.230;6.240;2023-04-06T01:13:19;2.80;87.60
27647;DHT22;42229;51.230;6.240;2023-04-06T01:15:54;2.80;87.80
27647;DHT22;42229;51.230;6.240;2023-04-06T01:18:28;2.70;87.90
27647;DHT22;42229;51.230;6.240;2023-04-06T01:21:12;2.70;88.10
27647;DHT22;42229;51.230;6.240;2023-04-06T01:23:48;2.60;88.20
27647;DHT22;42229;51.230;6.240;2023-04-06T01:26:21;2.60;88.40
27647;DHT22;42229;51.230;6.240;2023-04-06T01:28:50;2.50;88.60
27647;DHT22;42229;51.230;6.240;2023-04-06T01:31:25;2.50;88.80
27647;DHT22;42229;51.230;6.240;2023-04-06T01:33:52;2.50;89.00
27647;DHT22;42229;51.230;6.240;2023-04-06T01:36:22;2.50;89.10
27647;DHT22;42229;51.230;6.240;2023-04-06T01:38:56;2.40;89.30
27647;DHT22;42229;51.230;6.240;2023-04-06T01:41:30;2.40;89.40
27647;DHT22;42229;51.230;6.240;2023-04-06T01:43:56;2.40;89.70
27647;DHT22;42229;51.230;6.240;2023-04-06T01:46:26;2.30;89.80
27647;DHT22;42229;51.230;6.240;2023-04-06T01:48:53;2.30;90.00
27647;DHT22;42229;51.230;6.240;2023-04-06T01:51:28;2.30;90.10
27647;DHT22;42229;51.230;6.240;2023-04-06T01:53:58;2.30;90.10
27647;DHT22;42229;51.230;6.240;2023-04-06T01:56:34;2.30;90.20
27647;DHT22;42229;51.230;6.240;2023-04-06T01:59:19;2.30;90.30
27647;DHT22;42229;51.230;6.240;2023-04-06T02:01:46;2.20;90.40
27647;DHT22;42229;51.230;6.240;2023-04-06T02:04:12;2.20;90.50
27647;DHT22;42229;51.230;6.240;2023-04-06T02:06:40;2.20;90.60
27647;DHT22;42229;51.230;6.240;2023-04-06T02:09:09;2.20;90.90
27647;DHT22;42229;51.230;6.240;2023-04-06T02:11:35;2.20;90.70
27647;DHT22;42229;51.230;6.240;2023-04-06T02:14:02;2.20;90.80
27647;DHT22;42229;51.230;6.240;2023-04-06T02:16:31;2.20;90.90
27647;DHT22;42229;51.230;6.240;2023-04-06T02:18:58;2.20;91.00
27647;DHT22;42229;51.230;6.240;2023-04-06T02:21:24;2.20;91.10
27647;DHT22;42229;51.230;6.240;2023-04-06T02:23:50;2.10;91.10
27647;DHT22;42229;51.230;6.240;2023-04-06T02:26:17;2.10;91.20
27647;DHT22;42229;51.230;6.240;2023-04-06T02:28:43;2.10;91.20
27647;DHT22;42229;51.230;6.240;2023-04-06T02:31:10;2.10;91.30
27647;DHT22;42229;51.230;6.240;2023-04-06T02:33:38;2.10;91.40
27647;DHT22;42229;51.230;6.240;2023-04-06T02:36:06;2.10;91.50
27647;DHT22;42229;51.230;6.240;2023-04-06T02:38:32;2.10;91.50
27647;DHT22;42229;51.230;6.240;2023-04-06T02:41:01;2.10;91.60
27647;DHT22;42229;51.230;6.240;2023-04-06T02:43:28;2.00;91.70
27647;DHT22;42229;51.230;6.240;2023-04-06T02:46:02;2.00;91.70
27647;DHT22;42229;51.230;6.240;2023-04-06T02:48:32;2.00;91.80
27647;DHT22;42229;51.230;6.240;2023-04-06T02:51:02;2.00;91.90
27647;DHT22;42229;51.230;6.240;2023-04-06T02:53:28;2.00;91.90
27647;DHT22;42229;51.230;6.240;2023-04-06T02:55:54;2.00;92.00
27647;DHT22;42229;51.230;6.240;2023-04-06T02:58:24;2.00;92.10
27647;DHT22;42229;51.230;6.240;2023-04-06T03:00:54;2.00;92.20
27647;DHT22;42229;51.230;6.240;2023-04-06T03:03:20;2.00;92.20
27647;DHT22;42229;51.230;6.240;2023-04-06T03:05:47;1.90;92.30
27647;DHT22;42229;51.230;6.240;2023-04-06T03:08:15;1.90;92.30
27647;DHT22;42229;51.230;6.240;2023-04-06T03:10:44;2.00;92.50
27647;DHT22;42229;51.230;6.240;2023-04-06T03:13:10;2.00;92.60
27647;DHT22;42229;51.230;6.240;2023-04-06T03:15:49;2.00;92.70
27647;DHT22;42229;51.230;6.240;2023-04-06T03:18:20;2.00;92.70
27647;DHT22;42229;51.230;6.240;2023-04-06T03:20:48;2.00;92.60
27647;DHT22;42229;51.230;6.240;2023-04-06T03:23:16;2.00;92.70
27647;DHT22;42229;51.230;6.240;2023-04-06T03:25:44;2.00;92.70
27647;DHT22;42229;51.230;6.240;2023-04-06T03:28:15;2.00;92.80
27647;DHT22;42229;51.230;6.240;2023-04-06T03:31:02;2.10;92.90
27647;DHT22;42229;51.230;6.240;2023-04-06T03:34:00;2.00;93.00
27647;DHT22;42229;51.230;6.240;2023-04-06T03:36:32;2.00;93.10
27647;DHT22;42229;51.230;6.240;2023-04-06T03:39:00;2.00;93.10
27647;DHT22;42229;51.230;6.240;2023-04-06T03:41:27;2.00;93.20
27647;DHT22;42229;51.230;6.240;2023-04-06T03:44:01;2.00;93.30
27647;DHT22;42229;51.230;6.240;2023-04-06T03:46:28;2.00;93.40
27647;DHT22;42229;51.230;6.240;2023-04-06T03:48:56;2.00;93.40
27647;DHT22;42229;51.230;6.240;2023-04-06T03:51:24;2.00;93.50
27647;DHT22;42229;51.230;6.240;2023-04-06T03:53:51;2.00;93.60
27647;DHT22;42229;51.230;6.240;2023-04-06T03:56:17;2.00;93.70
27647;DHT22;42229;51.230;6.240;2023-04-06T03:58:43;2.00;93.70
27647;DHT22;42229;51.230;6.240;2023-04-06T04:01:11;2.00;93.80
27647;DHT22;42229;51.230;6.240;2023-04-06T04:03:37;2.00;93.80
27647;DHT22;42229;51.230;6.240;2023-04-06T04:06:03;2.00;93.80
27647;DHT22;42229;51.230;6.240;2023-04-06T04:08:29;2.00;94.00
27647;DHT22;42229;51.230;6.240;2023-04-06T04:10:56;2.00;94.00
27647;DHT22;42229;51.230;6.240;2023-04-06T04:13:22;2.00;94.00
27647;DHT22;42229;51.230;6.240;2023-04-06T04:15:51;2.00;94.20
27647;DHT22;42229;51.230;6.240;2023-04-06T04:18:17;2.00;94.50
27647;DHT22;42229;51.230;6.240;2023-04-06T04:20:43;2.10;94.40
27647;DHT22;42229;51.230;6.240;2023-04-06T04:23:11;2.10;94.50
27647;DHT22;42229;51.230;6.240;2023-04-06T04:25:37;2.10;94.60
27647;DHT22;42229;51.230;6.240;2023-04-06T04:28:03;2.10;94.60
27647;DHT22;42229;51.230;6.240;2023-04-06T04:30:31;2.20;94.80
27647;DHT22;42229;51.230;6.240;2023-04-06T04:32:57;2.20;94.90
27647;DHT22;42229;51.230;6.240;2023-04-06T04:35:24;2.30;95.10
27647;DHT22;42229;51.230;6.240;2023-04-06T04:37:50;2.30;95.30
27647;DHT22;42229;51.230;6.240;2023-04-06T04:40:17;2.40;95.40
27647;DHT22;42229;51.230;6.240;2023-04-06T04:42:49;2.40;95.40
27647;DHT22;42229;51.230;6.240;2023-04-06T04:45:28;2.50;95.50
27647;DHT22;42229;51.230;6.240;2023-04-06T04:47:56;2.60;95.60
27647;DHT22;42229;51.230;6.240;2023-04-06T04:50:26;2.60;95.80
27647;DHT22;42229;51.230;6.240;2023-04-06T04:52:56;2.70;95.80
27647;DHT22;42229;51.230;6.240;2023-04-06T04:55:25;2.70;95.90
27647;DHT22;42229;51.230;6.240;2023-04-06T04:57:54;2.90;96.00
27647;DHT22;42229;51.230;6.240;2023-04-06T05:00:27;2.90;96.00
27647;DHT22;42229;51.230;6.240;2023-04-06T05:02:57;3.00;96.10
27647;DHT22;42229;51.230;6.240;2023-04-06T05:05:26;3.00;96.20
27647;DHT22;42229;51.230;6.240;2023-04-06T05:07:53;3.10;96.30
27647;DHT22;42229;51.230;6.240;2023-04-06T05:10:28;3.10;96.40
27647;DHT22;42229;51.230;6.240;2023-04-06T05:12:59;3.20;96.50
27647;DHT22;42229;51.230;6.240;2023-04-06T05:15:26;3.30;96.50
27647;DHT22;42229;51.230;6.240;2023-04-06T05:17:57;3.30;96.70
27647;DHT22;42229;51.230;6.240;2023-04-06T05:20:30;3.30;97.30
27647;DHT22;42229;51.230;6.240;2023-04-06T05:22:56;3.40;97.20
27647;DHT22;42229;51.230;6.240;2023-04-06T05:25:22;3.40;97.50
27647;DHT22;42229;51.230;6.240;2023-04-06T05:27:52;3.50;97.90
27647;DHT22;42229;51.230;6.240;2023-04-06T05:30:29;3.60;97.60
27647;DHT22;42229;51.230;6.240;2023-04-06T05:32:57;3.70;97.70
27647;DHT22;42229;51.230;6.240;2023-04-06T05:35:28;3.70;97.80
27647;DHT22;42229;51.230;6.240;2023-04-06T05:37:59;3.80;98.20
27647;DHT22;42229;51.230;6.240;2023-04-06T05:40:27;3.90;98.30
27647;DHT22;42229;51.230;6.240;2023-04-06T05:42:53;4.00;99.70
27647;DHT22;42229;51.230;6.240;2023-04-06T05:45:20;4.10;99.80
27647;DHT22;42229;51.230;6.240;2023-04-06T05:47:51;4.20;99.40
27647;DHT22;42229;51.230;6.240;2023-04-06T05:50:25;4.30;99.10
27647;DHT22;42229;51.230;6.240;2023-04-06T05:52:51;4.40;98.90
27647;DHT22;42229;51.230;6.240;2023-04-06T05:55:21;4.50;99.00
27647;DHT22;42229;51.230;6.240;2023-04-06T05:57:53;4.60;99.00
27647;DHT22;42229;51.230;6.240;2023-04-06T06:00:21;4.60;98.90
27647;DHT22;42229;51.230;6.240;2023-04-06T06:02:58;4.80;99.10
27647;DHT22;42229;51.230;6.240;2023-04-06T06:05:28;4.90;99.60
27647;DHT22;42229;51.230;6.240;2023-04-06T06:07:57;5.00;99.40
27647;DHT22;42229;51.230;6.240;2023-04-06T06:10:24;5.10;99.50
27647;DHT22;42229;51.230;6.240;2023-04-06T06:12:51;5.20;99.70
27647;DHT22;42229;51.230;6.240;2023-04-06T06:15:17;5.40;99.90
27647;DHT22;42229;51.230;6.240;2023-04-06T06:17:46;5.50;99.90
27647;DHT22;42229;51.230;6.240;2023-04-06T06:20:13;5.60;99.90
27647;DHT22;42229;51.230;6.240;2023-04-06T06:22:39;5.80;99.90
27647;DHT22;42229;51.230;6.240;2023-04-06T06:25:09;5.90;99.70
27647;DHT22;42229;51.230;6.240;2023-04-06T06:27:35;6.00;99.60
27647;DHT22;42229;51.230;6.240;2023-04-06T06:30:02;6.10;99.90
27647;DHT22;42229;51.230;6.240;2023-04-06T06:32:31;6.20;99.50
27647;DHT22;42229;51.230;6.240;2023-04-06T06:34:59;6.30;99.50
27647;DHT22;42229;51.230;6.240;2023-04-06T06:37:25;6.30;99.60
27647;DHT22;42229;51.230;6.240;2023-04-06T06:39:51;6.40;99.60
27647;DHT22;42229;51.230;6.240;2023-04-06T06:42:20;6.50;99.60
27647;DHT22;42229;51.230;6.240;2023-04-06T06:45:13;6.50;99.80
27647;DHT22;42229;51.230;6.240;2023-04-06T06:47:40;6.60;99.60
27647;DHT22;42229;51.230;6.240;2023-04-06T06:50:07;6.70;99.70
27647;DHT22;42229;51.230;6.240;2023-04-06T06:52:33;6.80;99.70
27647;DHT22;42229;51.230;6.240;2023-04-06T06:54:59;6.80;99.80
27647;DHT22;42229;51.230;6.240;2023-04-06T06:57:26;6.90;99.90
27647;DHT22;42229;51.230;6.240;2023-04-06T06:59:52;7.00;99.90
27647;DHT22;42229;51.230;6.240;2023-04-06T07:02:20;7.10;99.90
27647;DHT22;42229;51.230;6.240;2023-04-06T07:04:47;7.20;99.90
27647;DHT22;42229;51.230;6.240;2023-04-06T07:07:14;7.30;99.90
27647;DHT22;42229;51.230;6.240;2023-04-06T07:09:41;7.40;99.90
27647;DHT22;42229;51.230;6.240;2023-04-06T07:12:07;7.50;99.90
27647;DHT22;42229;51.230;6.240;2023-04-06T07:14:33;7.60;99.90
27647;DHT22;42229;51.230;6.240;2023-04-06T07:17:00;7.80;99.90
27647;DHT22;42229;51.230;6.240;2023-04-06T07:19:26;7.90;99.90
27647;DHT22;42229;51.230;6.240;2023-04-06T07:21:52;8.00;99.90
27647;DHT22;42229;51.230;6.240;2023-04-06T07:24:19;8.10;99.90
27647;DHT22;42229;51.230;6.240;2023-04-06T07:26:45;8.20;99.90
27647;DHT22;42229;51.230;6.240;2023-04-06T07:29:12;8.40;99.90
27647;DHT22;42229;51.230;6.240;2023-04-06T07:31:39;8.50;99.90
27647;DHT22;42229;51.230;6.240;2023-04-06T07:34:05;8.60;99.90
27647;DHT22;42229;51.230;6.240;2023-04-06T07:36:31;8.70;99.90
27647;DHT22;42229;51.230;6.240;2023-04-06T07:38:58;8.80;99.90
27647;DHT22;42229;51.230;6.240;2023-04-06T07:41:25;8.90;99.90
27647;DHT22;42229;51.230;6.240;2023-04-06T07:43:51;9.00;99.40
27647;DHT22;42229;51.230;6.240;2023-04-06T07:46:17;9.20;99.90
27647;DHT22;42229;51.230;6.240;2023-04-06T07:48:44;9.30;99.90
27647;DHT22;42229;51.230;6.240;2023-04-06T07:51:10;9.40;99.60
27647;DHT22;42229;51.230;6.240;2023-04-06T07:53:41;9.50;98.30
27647;DHT22;42229;51.230;6.240;2023-04-06T07:56:07;9.60;99.10
27647;DHT22;42229;51.230;6.240;2023-04-06T07:58:33;9.70;98.60
27647;DHT22;42229;51.230;6.240;2023-04-06T08:01:00;9.80;99.10
27647;DHT22;42229;51.230;6.240;2023-04-06T08:03:27;9.90;99.30
27647;DHT22;42229;51.230;6.240;2023-04-06T08:05:53;10.10;99.40
27647;DHT22;42229;51.230;6.240;2023-04-06T08:08:19;10.20;99.10
27647;DHT22;42229;51.230;6.240;2023-04-06T08:10:47;10.30;99.70
27647;DHT22;42229;51.230;6.240;2023-04-06T08:13:14;10.50;99.70
27647;DHT22;42229;51.230;6.240;2023-04-06T08:15:41;10.60;98.20
27647;DHT22;42229;51.230;6.240;2023-04-06T08:18:08;10.70;98.00
27647;DHT22;42229;51.230;6.240;2023-04-06T08:20:34;10.80;97.70
27647;DHT22;42229;51.230;6.240;2023-04-06T08:23:00;10.90;99.50
27647;DHT22;42229;51.230;6.240;2023-04-06T08:25:29;11.00;98.70
27647;DHT22;42229;51.230;6.240;2023-04-06T08:27:56;11.10;99.40
27647;DHT22;42229;51.230;6.240;2023-04-06T08:30:22;11.20;98.70
27647;DHT22;42229;51.230;6.240;2023-04-06T08:32:48;11.30;98.30
27647;DHT22;42229;51.230;6.240;2023-04-06T08:35:14;11.40;99.00
27647;DHT22;42229;51.230;6.240;2023-04-06T08:37:41;11.50;98.70
27647;DHT22;42229;51.230;6.240;2023-04-06T08:40:07;11.60;99.20
27647;DHT22;42229;51.230;6.240;2023-04-06T08:42:36;11.70;98.10
27647;DHT22;42229;51.230;6.240;2023-04-06T08:45:11;11.70;98.30
27647;DHT22;42229;51.230;6.240;2023-04-06T08:47:39;11.90;97.60
27647;DHT22;42229;51.230;6.240;2023-04-06T08:50:06;12.00;97.40
27647;DHT22;42229;51.230;6.240;2023-04-06T08:52:34;12.10;97.50
27647;DHT22;42229;51.230;6.240;2023-04-06T08:55:00;12.20;97.50
27647;DHT22;42229;51.230;6.240;2023-04-06T08:57:26;12.40;98.10
27647;DHT22;42229;51.230;6.240;2023-04-06T08:59:53;12.50;97.60
27647;DHT22;42229;51.230;6.240;2023-04-06T09:02:20;12.60;95.90
27647;DHT22;42229;51.230;6.240;2023-04-06T09:04:47;12.70;99.00
27647;DHT22;42229;51.230;6.240;2023-04-06T09:07:14;12.80;93.20
27647;DHT22;42229;51.230;6.240;2023-04-06T09:09:41;12.80;96.50
27647;DHT22;42229;51.230;6.240;2023-04-06T09:12:26;12.90;98.20
27647;DHT22;42229;51.230;6.240;2023-04-06T09:14:54;13.00;95.50
27647;DHT22;42229;51.230;6.240;2023-04-06T09:19:48;13.00;96.00
27647;DHT22;42229;51.230;6.240;2023-04-06T09:22:15;13.10;97.10
27647;DHT22;42229;51.230;6.240;2023-04-06T09:24:50;13.10;97.40
27647;DHT22;42229;51.230;6.240;2023-04-06T09:27:20;13.20;96.20
27647;DHT22;42229;51.230;6.240;2023-04-06T09:32:49;13.30;95.80
27647;DHT22;42229;51.230;6.240;2023-04-06T09:35:16;13.40;94.70
27647;DHT22;42229;51.230;6.240;2023-04-06T09:37:43;13.50;95.30
27647;DHT22;42229;51.230;6.240;2023-04-06T09:40:09;13.60;97.70
27647;DHT22;42229;51.230;6.240;2023-04-06T09:42:36;13.60;94.30
27647;DHT22;42229;51.230;6.240;2023-04-06T09:45:03;13.70;94.40
27647;DHT22;42229;51.230;6.240;2023-04-06T09:47:32;13.70;95.90
27647;DHT22;42229;51.230;6.240;2023-04-06T09:49:59;13.80;96.50
27647;DHT22;42229;51.230;6.240;2023-04-06T09:52:27;13.90;96.70
27647;DHT22;42229;51.230;6.240;2023-04-06T09:55:00;13.90;97.20
27647;DHT22;42229;51.230;6.240;2023-04-06T09:57:29;14.00;93.10
27647;DHT22;42229;51.230;6.240;2023-04-06T10:00:05;14.10;93.80
27647;DHT22;42229;51.230;6.240;2023-04-06T10:05:31;14.10;90.50
27647;DHT22;42229;51.230;6.240;2023-04-06T10:08:02;14.20;90.40
27647;DHT22;42229;51.230;6.240;2023-04-06T10:10:33;14.30;93.70
27647;DHT22;42229;51.230;6.240;2023-04-06T10:12:59;14.30;90.40
27647;DHT22;42229;51.230;6.240;2023-04-06T10:15:27;14.30;90.00
27647;DHT22;42229;51.230;6.240;2023-04-06T10:17:54;14.40;91.70
27647;DHT22;42229;51.230;6.240;2023-04-06T10:23:08;14.40;87.70
27647;DHT22;42229;51.230;6.240;2023-04-06T10:25:51;14.40;91.00
27647;DHT22;42229;51.230;6.240;2023-04-06T10:28:19;14.30;92.50
27647;DHT22;42229;51.230;6.240;2023-04-06T10:30:46;14.40;92.80
27647;DHT22;42229;51.230;6.240;2023-04-06T10:33:16;14.40;90.60
27647;DHT22;42229;51.230;6.240;2023-04-06T10:35:43;14.40;92.70
27647;DHT22;42229;51.230;6.240;2023-04-06T10:38:10;14.40;91.10
27647;DHT22;42229;51.230;6.240;2023-04-06T10:40:38;14.40;92.00
27647;DHT22;42229;51.230;6.240;2023-04-06T10:43:12;14.40;92.40
27647;DHT22;42229;51.230;6.240;2023-04-06T10:45:40;14.50;93.10
27647;DHT22;42229;51.230;6.240;2023-04-06T10:50:43;14.70;90.20
27647;DHT22;42229;51.230;6.240;2023-04-06T10:53:11;14.80;93.60
27647;DHT22;42229;51.230;6.240;2023-04-06T10:55:40;14.90;92.20
27647;DHT22;42229;51.230;6.240;2023-04-06T10:58:07;15.10;92.80
27647;DHT22;42229;51.230;6.240;2023-04-06T11:00:34;15.20;92.00
27647;DHT22;42229;51.230;6.240;2023-04-06T11:03:01;15.40;95.00
27647;DHT22;42229;51.230;6.240;2023-04-06T11:05:27;15.40;93.90
27647;DHT22;42229;51.230;6.240;2023-04-06T11:07:54;15.60;83.50
27647;DHT22;42229;51.230;6.240;2023-04-06T11:10:21;15.60;90.90
27647;DHT22;42229;51.230;6.240;2023-04-06T11:12:54;15.60;90.20
27647;DHT22;42229;51.230;6.240;2023-04-06T11:15:20;15.70;86.60
27647;DHT22;42229;51.230;6.240;2023-04-06T11:17:47;15.70;90.80
27647;DHT22;42229;51.230;6.240;2023-04-06T11:20:14;15.70;90.20
27647;DHT22;42229;51.230;6.240;2023-04-06T11:22:48;15.60;90.20
27647;DHT22;42229;51.230;6.240;2023-04-06T11:25:15;15.60;87.50
27647;DHT22;42229;51.230;6.240;2023-04-06T11:27:43;15.60;86.00
27647;DHT22;42229;51.230;6.240;2023-04-06T11:30:09;15.60;89.10
27647;DHT22;42229;51.230;6.240;2023-04-06T11:32:40;15.40;82.80
27647;DHT22;42229;51.230;6.240;2023-04-06T11:35:21;15.40;84.70
27647;DHT22;42229;51.230;6.240;2023-04-06T11:37:49;15.20;86.10
27647;DHT22;42229;51.230;6.240;2023-04-06T11:40:20;15.20;86.40
27647;DHT22;42229;51.230;6.240;2023-04-06T11:42:54;15.10;85.50
27647;DHT22;42229;51.230;6.240;2023-04-06T11:45:21;15.00;86.80
27647;DHT22;42229;51.230;6.240;2023-04-06T11:47:57;14.90;85.00
27647;DHT22;42229;51.230;6.240;2023-04-06T11:50:25;14.80;89.80
27647;DHT22;42229;51.230;6.240;2023-04-06T11:52:58;14.70;87.80
27647;DHT22;42229;51.230;6.240;2023-04-06T11:55:28;14.60;88.40
27647;DHT22;42229;51.230;6.240;2023-04-06T11:57:55;14.50;90.80
27647;DHT22;42229;51.230;6.240;2023-04-06T12:00:21;14.50;90.60
27647;DHT22;42229;51.230;6.240;2023-04-06T12:02:48;14.40;88.40
27647;DHT22;42229;51.230;6.240;2023-04-06T12:05:15;14.30;90.90
27647;DHT22;42229;51.230;6.240;2023-04-06T12:07:41;14.30;91.60
27647;DHT22;42229;51.230;6.240;2023-04-06T12:10:08;14.20;91.80
27647;DHT22;42229;51.230;6.240;2023-04-06T12:12:34;14.10;91.70
27647;DHT22;42229;51.230;6.240;2023-04-06T12:15:00;14.00;92.50
27647;DHT22;42229;51.230;6.240;2023-04-06T12:17:27;14.00;93.60
27647;DHT22;42229;51.230;6.240;2023-04-06T12:19:53;13.90;93.90
27647;DHT22;42229;51.230;6.240;2023-04-06T12:22:19;13.80;94.10
27647;DHT22;42229;51.230;6.240;2023-04-06T12:24:45;13.70;94.50
27647;DHT22;42229;51.230;6.240;2023-04-06T12:27:12;13.60;95.30
27647;DHT22;42229;51.230;6.240;2023-04-06T12:29:38;13.50;95.10
27647;DHT22;42229;51.230;6.240;2023-04-06T12:32:05;13.40;95.30
27647;DHT22;42229;51.230;6.240;2023-04-06T12:34:32;13.20;96.10
27647;DHT22;42229;51.230;6.240;2023-04-06T12:36:58;13.10;96.40
27647;DHT22;42229;51.230;6.240;2023-04-06T12:39:24;13.00;96.40
27647;DHT22;42229;51.230;6.240;2023-04-06T12:41:51;12.80;97.30
27647;DHT22;42229;51.230;6.240;2023-04-06T12:44:17;12.60;97.40
27647;DHT22;42229;51.230;6.240;2023-04-06T12:46:44;12.50;97.70
27647;DHT22;42229;51.230;6.240;2023-04-06T12:49:11;12.50;98.80
27647;DHT22;42229;51.230;6.240;2023-04-06T12:51:37;12.40;99.40
27647;DHT22;42229;51.230;6.240;2023-04-06T12:54:03;12.40;99.00
27647;DHT22;42229;51.230;6.240;2023-04-06T12:56:30;12.30;99.90
27647;DHT22;42229;51.230;6.240;2023-04-06T12:58:56;12.30;99.90
27647;DHT22;42229;51.230;6.240;2023-04-06T13:01:23;12.20;99.90
27647;DHT22;42229;51.230;6.240;2023-04-06T13:03:49;12.20;99.90
27647;DHT22;42229;51.230;6.240;2023-04-06T13:06:15;12.20;99.90
27647;DHT22;42229;51.230;6.240;2023-04-06T13:08:42;12.20;99.90
27647;DHT22;42229;51.230;6.240;2023-04-06T13:11:08;12.20;99.90
27647;DHT22;42229;51.230;6.240;2023-04-06T13:13:35;12.20;99.90
27647;DHT22;42229;51.230;6.240;2023-04-06T13:16:03;12.20;99.90
27647;DHT22;42229;51.230;6.240;2023-04-06T13:18:31;12.20;99.90
27647;DHT22;42229;51.230;6.240;2023-04-06T13:20:58;12.20;99.90
27647;DHT22;42229;51.230;6.240;2023-04-06T13:23:26;12.20;99.90
27647;DHT22;42229;51.230;6.240;2023-04-06T13:25:59;12.20;99.90
27647;DHT22;42229;51.230;6.240;2023-04-06T13:28:29;12.20;99.90
27647;DHT22;42229;51.230;6.240;2023-04-06T13:30:57;12.20;99.90
27647;DHT22;42229;51.230;6.240;2023-04-06T13:33:24;12.10;99.90
27647;DHT22;42229;51.230;6.240;2023-04-06T13:35:51;12.10;99.90
27647;DHT22;42229;51.230;6.240;2023-04-06T13:38:17;12.10;99.90
27647;DHT22;42229;51.230;6.240;2023-04-06T13:40:43;12.00;99.90
27647;DHT22;42229;51.230;6.240;2023-04-06T13:43:10;12.00;99.90
27647;DHT22;42229;51.230;6.240;2023-04-06T13:45:36;11.90;99.90
27647;DHT22;42229;51.230;6.240;2023-04-06T13:48:03;11.90;99.90
27647;DHT22;42229;51.230;6.240;2023-04-06T13:50:30;11.90;99.90
27647;DHT22;42229;51.230;6.240;2023-04-06T13:52:56;11.80;99.90
27647;DHT22;42229;51.230;6.240;2023-04-06T13:55:22;11.90;99.90
27647;DHT22;42229;51.230;6.240;2023-04-06T13:57:51;11.90;99.90
27647;DHT22;42229;51.230;6.240;2023-04-06T14:00:18;11.80;99.90
27647;DHT22;42229;51.230;6.240;2023-04-06T14:02:45;11.80;99.90
27647;DHT22;42229;51.230;6.240;2023-04-06T14:05:11;11.80;99.90
27647;DHT22;42229;51.230;6.240;2023-04-06T14:07:37;11.80;99.90
27647;DHT22;42229;51.230;6.240;2023-04-06T14:10:03;11.80;99.90
27647;DHT22;42229;51.230;6.240;2023-04-06T14:12:30;11.80;99.90
27647;DHT22;42229;51.230;6.240;2023-04-06T14:14:57;11.80;99.90
27647;DHT22;42229;51.230;6.240;2023-04-06T14:17:23;11.80;99.90
27647;DHT22;42229;51.230;6.240;2023-04-06T14:19:50;11.70;99.90
27647;DHT22;42229;51.230;6.240;2023-04-06T14:22:17;11.80;99.90
27647;DHT22;42229;51.230;6.240;2023-04-06T14:24:43;11.80;99.90
27647;DHT22;42229;51.230;6.240;2023-04-06T14:27:10;11.80;99.90
27647;DHT22;42229;51.230;6.240;2023-04-06T14:29:37;11.80;99.90
27647;DHT22;42229;51.230;6.240;2023-04-06T14:32:03;11.70;99.90
27647;DHT22;42229;51.230;6.240;2023-04-06T14:34:29;11.70;99.90
27647;DHT22;42229;51.230;6.240;2023-04-06T14:36:55;11.70;99.90
27647;DHT22;42229;51.230;6.240;2023-04-06T14:39:22;11.70;99.90
27647;DHT22;42229;51.230;6.240;2023-04-06T14:41:48;11.70;99.90
27647;DHT22;42229;51.230;6.240;2023-04-06T14:44:14;11.70;99.90
27647;DHT22;42229;51.230;6.240;2023-04-06T14:46:42;11.60;99.90
27647;DHT22;42229;51.230;6.240;2023-04-06T14:49:08;11.60;99.90
27647;DHT22;42229;51.230;6.240;2023-04-06T14:51:34;11.60;99.90
27647;DHT22;42229;51.230;6.240;2023-04-06T14:54:01;11.50;99.90
27647;DHT22;42229;51.230;6.240;2023-04-06T14:56:30;11.50;99.90
27647;DHT22;42229;51.230;6.240;2023-04-06T14:58:57;11.50;99.90
27647;DHT22;42229;51.230;6.240;2023-04-06T15:01:24;11.50;99.90
27647;DHT22;42229;51.230;6.240;2023-04-06T15:03:50;11.50;99.90
27647;DHT22;42229;51.230;6.240;2023-04-06T15:06:17;11.50;99.90
27647;DHT22;42229;51.230;6.240;2023-04-06T15:08:45;11.40;99.90
27647;DHT22;42229;51.230;6.240;2023-04-06T15:11:11;11.50;99.90
27647;DHT22;42229;51.230;6.240;2023-04-06T15:13:38;11.40;99.90
27647;DHT22;42229;51.230;6.240;2023-04-06T15:16:05;11.50;99.90
27647;DHT22;42229;51.230;6.240;2023-04-06T15:18:33;11.40;99.90
27647;DHT22;42229;51.230;6.240;2023-04-06T15:20:59;11.40;99.90
27647;DHT22;42229;51.230;6.240;2023-04-06T15:23:26;11.40;99.90
27647;DHT22;42229;51.230;6.240;2023-04-06T15:25:55;11.40;99.90
27647;DHT22;42229;51.230;6.240;2023-04-06T15:28:22;11.40;99.90
27647;DHT22;42229;51.230;6.240;2023-04-06T15:30:48;11.40;99.90
27647;DHT22;42229;51.230;6.240;2023-04-06T15:33:15;11.40;99.90
27647;DHT22;42229;51.230;6.240;2023-04-06T15:35:41;11.30;99.90
27647;DHT22;42229;51.230;6.240;2023-04-06T15:38:09;11.30;99.90
27647;DHT22;42229;51.230;6.240;2023-04-06T15:40:42;11.30;99.90
27647;DHT22;42229;51.230;6.240;2023-04-06T15:43:10;11.30;99.90
27647;DHT22;42229;51.230;6.240;2023-04-06T15:45:37;11.30;99.90
27647;DHT22;42229;51.230;6.240;2023-04-06T15:48:03;11.20;99.90
27647;DHT22;42229;51.230;6.240;2023-04-06T15:50:29;11.20;99.90
27647;DHT22;42229;51.230;6.240;2023-04-06T15:52:56;11.20;99.90
27647;DHT22;42229;51.230;6.240;2023-04-06T15:55:22;11.20;99.90
27647;DHT22;42229;51.230;6.240;2023-04-06T15:57:48;11.10;99.90